Time;durP1;ratioP1;P1;durP2;ratioP2;P2;SDS_P1;SDS_P2;PMS_P1;PMS_P2;Temp;Humidity;BMP_temperature;BMP_pressure;BME280_temperature;BME280_humidity;BME280_pressure;Samples;Min_cycle;Max_cycle;Signal;HPM_P1;HPM_P2
2021/03/17 00:01:38;;;;;;;25.80;12.63;;;;;;;5.74;100.00;101831.25;5074148;28;20086;-71
2021/03/17 00:04:22;;;;;;;37.28;17.10;;;;;;;5.74;100.00;101836.56;5072498;28;20402;-71
2021/03/17 00:07:07;;;;;;;31.75;14.77;;;;;;;5.67;100.00;101836.72;5071105;28;20060;-72
2021/03/17 00:09:51;;;;;;;23.60;12.10;;;;;;;5.77;100.00;101833.81;5066434;28;20079;-71
2021/03/17 00:12:35;;;;;;;46.55;19.60;;;;;;;5.74;100.00;101844.56;5078899;28;20126;-71
2021/03/17 00:15:20;;;;;;;32.08;15.70;;;;;;;5.61;100.00;101844.00;5066205;28;20055;-71
2021/03/17 00:18:07;;;;;;;46.88;20.80;;;;;;;5.62;100.00;101846.59;5067242;28;20047;-71
2021/03/17 00:20:51;;;;;;;28.25;14.90;;;;;;;5.61;100.00;101858.22;5067938;28;20583;-71
2021/03/17 00:23:35;;;;;;;23.85;11.68;;;;;;;5.61;100.00;101855.53;5067665;28;20074;-71
2021/03/17 00:26:19;;;;;;;35.90;15.40;;;;;;;5.60;100.00;101853.78;5069064;28;20051;-71
2021/03/17 00:29:03;;;;;;;39.63;16.63;;;;;;;5.61;100.00;101860.88;5065233;28;20044;-71
2021/03/17 00:31:46;;;;;;;36.65;16.88;;;;;;;5.70;100.00;101865.94;5072536;28;20052;-71
2021/03/17 00:34:30;;;;;;;20.92;11.27;;;;;;;5.68;100.00;101867.75;5069566;28;20405;-71
2021/03/17 00:37:14;;;;;;;24.60;13.00;;;;;;;5.62;100.00;101877.69;5070280;28;20098;-71
2021/03/17 00:39:58;;;;;;;22.02;12.07;;;;;;;5.62;100.00;101873.25;5064725;28;20132;-71
2021/03/17 00:42:42;;;;;;;24.35;10.90;;;;;;;5.61;100.00;101881.31;5071832;28;20493;-71
2021/03/17 00:45:27;;;;;;;21.70;10.20;;;;;;;5.61;100.00;101882.19;5067407;28;20043;-71
2021/03/17 00:48:11;;;;;;;16.95;9.00;;;;;;;5.73;100.00;101882.78;5072689;28;20813;-71
2021/03/17 00:50:39;;;;;;;22.02;10.20;;;;;;;5.80;100.00;101879.03;5084243;28;20552;-71
2021/03/17 00:53:05;;;;;;;15.38;9.38;;;;;;;5.76;100.00;101880.88;5072110;28;20073;-71
2021/03/17 00:55:31;;;;;;;18.88;8.98;;;;;;;5.63;100.00;101880.31;5067851;28;20430;-71
2021/03/17 00:58:10;;;;;;;17.77;9.63;;;;;;;5.60;100.00;101875.09;5061896;28;20039;-71
2021/03/17 01:00:36;;;;;;;15.82;8.85;;;;;;;5.66;100.00;101874.94;5069556;28;20108;-71
2021/03/17 01:03:01;;;;;;;17.23;8.40;;;;;;;5.63;100.00;101876.78;5081480;28;20105;-71
2021/03/17 01:05:29;;;;;;;16.20;8.77;;;;;;;5.57;100.00;101864.50;5069825;28;20044;-71
2021/03/17 01:07:54;;;;;;;19.63;9.77;;;;;;;5.62;100.00;101878.56;5049115;28;20416;-71
2021/03/17 01:10:33;;;;;;;16.10;8.30;;;;;;;5.52;100.00;101871.75;5067502;28;20032;-71
2021/03/17 01:12:59;;;;;;;16.17;9.20;;;;;;;5.47;100.00;101872.78;5072250;28;20036;-71
2021/03/17 01:15:24;;;;;;;19.92;9.48;;;;;;;5.45;100.00;101880.78;5067909;28;20040;-71
2021/03/17 01:17:50;;;;;;;21.77;9.63;;;;;;;5.42;100.00;101875.56;5066921;28;20398;-71
2021/03/17 01:20:18;;;;;;;14.15;8.05;;;;;;;5.48;100.00;101870.06;5064748;28;20032;-71
2021/03/17 01:22:43;;;;;;;17.27;8.15;;;;;;;5.43;100.00;101877.28;5067104;28;20438;-71
2021/03/17 01:25:12;;;;;;;13.98;7.80;;;;;;;5.49;100.00;101878.94;5072258;28;20032;-71
2021/03/17 01:27:38;;;;;;;17.70;8.45;;;;;;;5.43;100.00;101877.28;5075909;28;20032;-71
2021/03/17 01:30:06;;;;;;;16.35;8.10;;;;;;;5.46;100.00;101887.88;5066921;28;20081;-71
2021/03/17 01:32:32;;;;;;;13.82;7.10;;;;;;;5.53;100.00;101894.81;5069450;28;20532;-71
2021/03/17 01:34:58;;;;;;;12.35;7.30;;;;;;;5.47;100.00;101883.41;5067378;28;20071;-71
2021/03/17 01:37:23;;;;;;;16.98;7.35;;;;;;;5.49;100.00;101887.78;5068469;28;20434;-71
2021/03/17 01:39:49;;;;;;;11.32;6.32;;;;;;;5.56;100.00;101889.38;5067948;28;20043;-71
2021/03/17 01:42:14;;;;;;;14.88;7.18;;;;;;;5.44;100.00;101884.34;5070181;28;20060;-71
2021/03/17 01:44:40;;;;;;;13.10;6.85;;;;;;;5.43;100.00;101884.41;5066616;28;20039;-71
2021/03/17 01:47:05;;;;;;;13.32;7.30;;;;;;;5.38;100.00;101900.47;5068351;28;20058;-71
2021/03/17 01:49:31;;;;;;;13.35;7.28;;;;;;;5.55;100.00;101898.31;5066493;28;20422;-71
2021/03/17 01:51:56;;;;;;;15.40;8.48;;;;;;;5.48;100.00;101898.50;5069573;28;20057;-71
2021/03/17 01:54:22;;;;;;;14.57;8.45;;;;;;;5.58;100.00;101892.91;5065610;28;20032;-71
2021/03/17 01:56:48;;;;;;;16.70;8.80;;;;;;;5.55;100.00;101897.44;5067350;28;20409;-71
2021/03/17 01:59:13;;;;;;;14.50;7.97;;;;;;;5.46;100.00;101903.84;5066344;28;20109;-71
2021/03/17 02:01:39;;;;;;;12.98;7.32;;;;;;;5.39;100.00;101902.25;5068065;28;20040;-71
2021/03/17 02:04:04;;;;;;;13.90;7.55;;;;;;;5.41;100.00;101900.44;5065137;28;20452;-71
2021/03/17 02:06:30;;;;;;;12.18;6.93;;;;;;;5.43;100.00;101898.59;5067862;28;20039;-71
2021/03/17 02:08:55;;;;;;;12.75;6.25;;;;;;;5.36;100.00;101897.00;5066803;28;20033;-71
2021/03/17 02:11:21;;;;;;;11.63;6.15;;;;;;;5.43;100.00;101900.41;5068781;28;20344;-71
2021/03/17 02:14:14;;;;;;;11.55;6.43;;;;;;;5.33;100.00;101906.84;5066794;28;20033;-71
2021/03/17 02:16:43;;;;;;;;;;;;;;;5.26;100.00;101906.97;5065726;28;20345;-71
2021/03/17 02:19:40;;;;;;;14.63;7.70;;;;;;;5.31;100.00;101917.50;5065172;28;20305;-71
2021/03/17 02:22:31;;;;;;;17.23;8.43;;;;;;;5.22;100.00;101915.09;5069822;28;20097;-71
2021/03/17 02:25:08;;;;;;;16.48;8.25;;;;;;;5.27;100.00;101902.53;5064893;28;20028;-71
2021/03/17 02:28:10;;;;;;;13.60;7.75;;;;;;;5.37;100.00;101913.84;5080822;28;20032;-71
2021/03/17 02:31:03;;;;;;;16.58;8.27;;;;;;;5.33;100.00;101918.38;5067987;28;20093;-71
2021/03/17 02:33:36;;;;;;;16.47;8.97;;;;;;;5.28;100.00;101915.81;5064642;28;20074;-71
2021/03/17 02:36:10;;;;;;;16.23;8.02;;;;;;;5.33;100.00;101921.03;5071652;28;20360;-71
2021/03/17 02:38:38;;;;;;;13.35;8.15;;;;;;;5.34;100.00;101920.13;5067383;28;20029;-71
2021/03/17 02:41:06;;;;;;;13.75;8.02;;;;;;;5.31;100.00;101920.16;5066355;28;20036;-71
2021/03/17 02:43:34;;;;;;;16.02;8.73;;;;;;;5.36;100.00;101930.75;5064298;28;20491;-71
2021/03/17 02:46:06;;;;;;;18.35;9.18;;;;;;;5.32;100.00;101927.25;5067407;28;20360;-71
2021/03/17 02:48:38;;;;;;;16.48;8.68;;;;;;;5.38;100.00;101928.91;5065561;28;20068;-71
2021/03/17 02:51:08;;;;;;;14.88;8.68;;;;;;;5.36;100.00;101920.97;5066951;28;20036;-71
2021/03/17 02:53:36;;;;;;;16.17;8.80;;;;;;;5.28;100.00;101925.59;5065648;28;20097;-71
2021/03/17 02:56:11;;;;;;;14.40;8.32;;;;;;;5.28;100.00;101930.91;5068104;28;20559;-71
2021/03/17 02:58:41;;;;;;;15.73;8.10;;;;;;;5.26;100.00;101930.94;5064446;28;20029;-71
2021/03/17 03:01:08;;;;;;;13.23;8.38;;;;;;;5.21;100.00;101942.59;5068679;28;20029;-71
2021/03/17 03:03:35;;;;;;;15.27;9.05;;;;;;;5.17;100.00;101932.94;5066349;28;20040;-71
2021/03/17 03:06:04;;;;;;;12.48;7.47;;;;;;;5.17;100.00;101935.63;5066758;28;20028;-71
2021/03/17 03:08:30;;;;;;;12.93;8.18;;;;;;;5.23;100.00;101925.69;5070601;28;20024;-71
2021/03/17 03:10:56;;;;;;;12.93;8.20;;;;;;;5.19;100.00;101923.13;5067279;28;20029;-71
2021/03/17 03:13:26;;;;;;;12.55;8.05;;;;;;;5.06;100.00;101932.31;5066143;28;20058;-71
2021/03/17 03:15:54;;;;;;;12.73;7.43;;;;;;;5.08;100.00;101927.81;5060570;28;20028;-71
2021/03/17 03:18:22;;;;;;;12.07;6.72;;;;;;;5.12;100.00;101929.53;5064549;28;20387;-71
2021/03/17 03:20:49;;;;;;;13.82;7.13;;;;;;;5.16;100.00;101931.19;5066103;28;20032;-71
2021/03/17 03:23:19;;;;;;;12.15;7.30;;;;;;;5.11;100.00;101930.44;5067751;28;20044;-71
2021/03/17 03:25:50;;;;;;;11.55;6.93;;;;;;;5.11;100.00;101927.75;5065985;28;20474;-71
2021/03/17 03:28:18;;;;;;;10.52;6.28;;;;;;;5.06;100.00;101927.00;5069401;28;20565;-71
2021/03/17 03:30:47;;;;;;;9.07;5.63;;;;;;;5.00;100.00;101922.66;5069611;28;20500;-72
2021/03/17 03:33:13;;;;;;;8.30;5.38;;;;;;;4.95;100.00;101926.34;5068623;28;20059;-71
2021/03/17 03:35:40;;;;;;;9.20;5.90;;;;;;;5.04;100.00;101919.03;5066125;28;20047;-70
2021/03/17 03:38:07;;;;;;;9.00;5.47;;;;;;;5.05;100.00;101922.59;5070356;28;20140;-71
2021/03/17 03:40:33;;;;;;;8.40;5.30;;;;;;;5.04;100.00;101927.03;5074148;28;20065;-71
2021/03/17 03:42:59;;;;;;;9.05;5.40;;;;;;;5.04;100.00;101931.47;5072288;28;20032;-71
2021/03/17 03:45:26;;;;;;;9.20;5.80;;;;;;;4.95;100.00;101926.34;5072938;28;20054;-71
2021/03/17 03:47:52;;;;;;;9.55;5.85;;;;;;;4.94;100.00;101924.63;5069963;28;20036;-71
2021/03/17 03:50:22;;;;;;;10.48;6.60;;;;;;;5.05;100.00;101933.22;5070690;28;20527;-71
2021/03/17 03:53:18;;;;;;;10.45;6.40;;;;;;;4.98;100.00;101923.63;5101963;27;20024;-71
2021/03/17 03:56:08;;;;;;;9.15;6.18;;;;;;;4.99;100.00;101917.41;5076050;28;20055;-71
2021/03/17 03:58:39;;;;;;;10.02;6.55;;;;;;;5.03;100.00;101927.06;5055527;28;20037;-71
2021/03/17 04:01:10;;;;;;;11.80;6.53;;;;;;;4.97;100.00;101917.44;5066666;28;20054;-71
2021/03/17 04:03:41;;;;;;;11.80;6.30;;;;;;;5.02;100.00;101912.88;5069943;28;20043;-72
2021/03/17 04:06:10;;;;;;;14.13;7.05;;;;;;;5.01;100.00;101910.22;5069262;28;20489;-71
2021/03/17 04:08:38;;;;;;;12.95;8.18;;;;;;;4.97;100.00;101921.88;5068438;28;20554;-71
2021/03/17 04:11:05;;;;;;;14.05;8.50;;;;;;;5.02;100.00;101919.97;5069112;28;21174;-71
2021/03/17 04:13:32;;;;;;;14.32;9.55;;;;;;;4.95;100.00;101915.69;5068396;28;20040;-71
2021/03/17 04:15:58;;;;;;;15.85;9.13;;;;;;;5.03;100.00;101938.56;5072098;28;20037;-71
2021/03/17 04:18:31;;;;;;;15.50;8.98;;;;;;;5.02;100.00;101939.47;5066206;28;20040;-71
2021/03/17 04:21:02;;;;;;;14.32;8.65;;;;;;;5.03;100.00;101935.91;5069348;28;20051;-71
2021/03/17 04:23:30;;;;;;;11.73;7.75;;;;;;;4.87;100.00;101930.06;5071709;28;20024;-71
2021/03/17 04:25:57;;;;;;;12.52;7.97;;;;;;;4.94;100.00;101936.09;5071903;28;20111;-71
2021/03/17 04:28:26;;;;;;;12.55;8.05;;;;;;;4.87;100.00;101932.72;5069167;28;20119;-71
2021/03/17 04:30:54;;;;;;;12.32;7.43;;;;;;;4.86;100.00;101933.63;5071560;28;20041;-71
2021/03/17 04:33:21;;;;;;;11.27;7.35;;;;;;;4.88;100.00;101934.44;5071765;28;20040;-71
2021/03/17 04:35:47;;;;;;;11.50;7.50;;;;;;;4.96;100.00;101938.72;5071948;28;20032;-71
2021/03/17 04:38:14;;;;;;;13.35;7.50;;;;;;;4.88;100.00;101937.09;5071119;28;20027;-71
2021/03/17 04:40:41;;;;;;;13.45;8.27;;;;;;;4.91;100.00;101932.66;5107953;27;20105;-71
2021/03/17 04:43:09;;;;;;;15.75;8.98;;;;;;;4.91;100.00;101936.19;5074728;28;20478;-71
2021/03/17 04:45:35;;;;;;;14.90;8.80;;;;;;;4.87;100.00;101938.03;5069481;28;20564;-71
2021/03/17 04:48:02;;;;;;;14.02;8.77;;;;;;;4.88;100.00;101937.09;5075697;28;20024;-71
2021/03/17 04:50:28;;;;;;;15.15;9.20;;;;;;;5.00;100.00;101943.09;5071143;28;20029;-71
2021/03/17 04:52:54;;;;;;;15.05;8.75;;;;;;;4.99;100.00;101939.56;5072060;28;20036;-71
2021/03/17 04:55:20;;;;;;;14.57;9.25;;;;;;;4.96;100.00;101944.06;5074170;28;20089;-71
2021/03/17 04:57:47;;;;;;;13.20;8.18;;;;;;;5.01;100.00;101931.53;5079581;28;20044;-71
2021/03/17 05:00:16;;;;;;;12.40;7.60;;;;;;;5.01;100.00;101943.03;5072797;28;20021;-71
2021/03/17 05:02:48;;;;;;;12.75;7.57;;;;;;;5.05;100.00;101952.72;5073127;28;20045;-71
2021/03/17 05:05:13;;;;;;;14.52;8.48;;;;;;;5.05;100.00;101949.19;5071108;28;20120;-71
2021/03/17 05:07:40;;;;;;;11.40;7.35;;;;;;;4.97;100.00;101944.03;5068931;28;20152;-71
2021/03/17 05:10:08;;;;;;;15.23;8.00;;;;;;;4.97;100.00;101951.13;5074539;28;20032;-71
2021/03/17 05:12:35;;;;;;;15.43;8.50;;;;;;;4.92;100.00;101948.59;5069070;28;20561;-71
2021/03/17 05:15:01;;;;;;;14.77;8.15;;;;;;;4.97;100.00;101953.78;5069097;28;20123;-70
2021/03/17 05:17:28;;;;;;;13.77;7.90;;;;;;;4.87;100.00;101950.47;5067990;28;20078;-71
2021/03/17 05:19:54;;;;;;;13.20;8.15;;;;;;;4.88;100.00;101950.41;5067337;28;20531;-72
2021/03/17 05:22:20;;;;;;;14.10;8.23;;;;;;;4.93;100.00;101954.78;5068080;28;20021;-70
2021/03/17 05:24:46;;;;;;;13.73;7.90;;;;;;;4.86;100.00;101957.56;5068012;28;20021;-71
2021/03/17 05:27:18;;;;;;;14.50;8.55;;;;;;;4.99;100.00;101954.66;5067599;28;20039;-70
2021/03/17 05:29:45;;;;;;;15.30;7.95;;;;;;;4.89;100.00;101956.63;5067145;28;20071;-71
2021/03/17 05:32:11;;;;;;;13.45;8.02;;;;;;;4.95;100.00;101955.59;5072829;28;20024;-71
2021/03/17 05:34:59;;;;;;;12.45;7.68;;;;;;;4.93;100.00;101960.09;5070157;28;20128;-71
2021/03/17 05:37:25;;;;;;;15.00;8.25;;;;;;;4.96;100.00;101958.25;5067213;28;20074;-70
2021/03/17 05:39:51;;;;;;;13.57;8.27;;;;;;;4.98;100.00;101959.09;5069306;28;20065;-70
2021/03/17 05:42:17;;;;;;;14.70;8.85;;;;;;;5.05;100.00;101959.84;5076259;28;20186;-71
2021/03/17 05:44:42;;;;;;;17.40;9.02;;;;;;;5.03;100.00;101970.50;5067024;28;20479;-71
2021/03/17 05:47:10;;;;;;;15.07;8.70;;;;;;;5.05;100.00;101958.06;5074011;28;20055;-71
2021/03/17 05:49:40;;;;;;;15.77;9.75;;;;;;;5.04;100.00;101966.94;5067571;28;20097;-71
2021/03/17 05:52:07;;;;;;;14.77;8.80;;;;;;;4.98;100.00;101964.41;5072727;28;20123;-71
2021/03/17 05:54:32;;;;;;;17.55;9.30;;;;;;;5.01;100.00;101974.09;5073195;28;20491;-70
2021/03/17 05:57:00;;;;;;;17.25;10.55;;;;;;;5.06;100.00;101975.75;5072053;28;20044;-71
2021/03/17 05:59:29;;;;;;;17.63;10.32;;;;;;;5.05;100.00;101967.81;5065383;28;20111;-70
2021/03/17 06:01:55;;;;;;;19.23;10.60;;;;;;;5.00;100.00;101961.72;5079302;28;20047;-71
2021/03/17 06:04:22;;;;;;;18.02;10.20;;;;;;;4.99;100.00;101965.28;5071207;28;20379;-71
2021/03/17 06:06:51;;;;;;;19.13;11.35;;;;;;;5.06;100.00;101969.56;5071723;28;20467;-71
2021/03/17 06:09:19;;;;;;;18.05;11.23;;;;;;;4.98;100.00;101966.19;5065881;28;20032;-71
2021/03/17 06:11:49;;;;;;;20.90;11.40;;;;;;;5.05;100.00;101975.81;5068793;28;20028;-71
2021/03/17 06:14:18;;;;;;;23.50;11.98;;;;;;;5.12;100.00;101972.09;5066041;28;20032;-70
2021/03/17 06:16:45;;;;;;;20.60;12.68;;;;;;;4.96;100.00;101968.00;5068831;28;20033;-71
2021/03/17 06:19:14;;;;;;;23.13;12.18;;;;;;;5.09;100.00;101961.50;5071212;28;20039;-71
2021/03/17 06:21:41;;;;;;;22.45;13.02;;;;;;;5.04;100.00;101968.72;5069741;28;20927;-71
2021/03/17 06:24:14;;;;;;;23.70;13.48;;;;;;;4.87;100.00;101967.31;5065702;28;20029;-71
2021/03/17 06:26:40;;;;;;;25.60;13.30;;;;;;;4.96;100.00;101975.97;5070371;28;20032;-71
2021/03/17 06:29:05;;;;;;;22.08;13.82;;;;;;;5.03;100.00;101969.63;5066909;28;20071;-70
2021/03/17 06:31:31;;;;;;;23.05;14.27;;;;;;;5.00;100.00;101972.38;5066236;28;20081;-70
2021/03/17 06:33:57;;;;;;;22.60;13.13;;;;;;;5.08;100.00;101970.41;5068630;28;20039;-70
2021/03/17 06:36:26;;;;;;;22.05;12.98;;;;;;;5.02;100.00;101970.53;5068348;28;20028;-71
2021/03/17 06:39:08;;;;;;;23.25;13.90;;;;;;;5.10;100.00;101968.59;5069547;28;20031;-70
2021/03/17 06:41:49;;;;;;;21.00;13.25;;;;;;;5.04;100.00;101974.03;5065182;28;20029;-71
2021/03/17 06:44:23;;;;;;;23.40;12.88;;;;;;;4.92;100.00;101971.66;5069560;28;20607;-71
2021/03/17 06:47:14;;;;;;;23.80;14.02;;;;;;;5.03;100.00;101967.84;5070425;28;20029;-71
2021/03/17 06:49:42;;;;;;;23.15;13.15;;;;;;;4.99;100.00;101967.94;5065354;28;20116;-72
2021/03/17 06:52:36;;;;;;;26.33;13.50;;;;;;;5.02;100.00;101967.88;5054885;28;20035;-70
2021/03/17 06:55:09;;;;;;;25.73;12.52;;;;;;;5.06;100.00;101964.25;5063343;28;20103;-71
2021/03/17 06:57:35;;;;;;;20.30;12.13;;;;;;;5.05;100.00;101955.41;5075977;28;20506;-71
2021/03/17 07:00:24;;;;;;;23.98;13.00;;;;;;;5.01;100.00;101952.81;5068745;28;20525;-71
2021/03/17 07:02:52;;;;;;;23.90;12.55;;;;;;;5.10;100.00;101952.63;5077031;28;20032;-70
2021/03/17 07:05:18;;;;;;;22.73;13.55;;;;;;;5.27;100.00;101950.44;5071269;28;20025;-70
2021/03/17 07:07:50;;;;;;;21.27;12.70;;;;;;;5.27;100.00;101951.34;5073732;28;20210;-71
2021/03/17 07:10:34;;;;;;;18.35;11.70;;;;;;;5.32;100.00;101943.22;5070944;28;20028;-70
2021/03/17 07:13:04;;;;;;;25.23;12.02;;;;;;;5.34;100.00;101952.06;5062244;28;20535;-70
2021/03/17 07:15:31;;;;;;;22.02;12.20;;;;;;;5.40;100.00;101951.94;5085222;28;20025;-70
2021/03/17 07:18:17;;;;;;;18.02;11.57;;;;;;;5.42;100.00;101943.91;5068253;28;20036;-70
2021/03/17 07:20:49;;;;;;;19.42;11.25;;;;;;;5.43;100.00;101957.16;5058134;28;20093;-71
2021/03/17 07:23:24;;;;;;;18.38;11.02;;;;;;;5.55;100.00;101950.69;5063013;28;20032;-70
2021/03/17 07:26:22;;;;;;;17.38;11.25;;;;;;;5.52;100.00;101940.97;5073607;28;20414;-70
2021/03/17 07:28:48;;;;;;;16.63;10.50;;;;;;;5.48;100.00;101947.31;5067371;28;20441;-70
2021/03/17 07:31:24;;;;;;;19.58;10.60;;;;;;;5.43;100.00;101956.31;5071410;28;20037;-70
2021/03/17 07:33:51;;;;;;;14.57;9.07;;;;;;;5.38;100.00;101967.06;5076002;28;20119;-70
2021/03/17 07:36:40;;;;;;;16.85;9.73;;;;;;;5.34;100.00;101969.81;5074734;28;20028;-71
2021/03/17 07:39:09;;;;;;;14.77;8.48;;;;;;;5.41;100.00;101974.09;5070579;28;20486;-71
2021/03/17 07:41:36;;;;;;;10.07;5.57;;;;;;;5.40;100.00;101973.22;5069005;28;20565;-71
2021/03/17 07:44:08;;;;;;;10.05;5.93;;;;;;;5.27;100.00;101972.63;5071142;28;20028;-70
2021/03/17 07:46:35;;;;;;;8.43;5.70;;;;;;;5.28;100.00;101978.84;5074288;28;20107;-71
2021/03/17 07:49:01;;;;;;;7.28;4.78;;;;;;;5.30;100.00;101982.34;5053953;28;20601;-71
2021/03/17 07:51:29;;;;;;;7.20;4.65;;;;;;;5.36;100.00;101982.22;5062040;28;20041;-71
2021/03/17 07:53:58;;;;;;;6.47;4.50;;;;;;;5.37;100.00;101983.94;5071497;28;20497;-70
2021/03/17 07:56:25;;;;;;;7.60;4.63;;;;;;;5.37;100.00;101999.91;5077336;28;20035;-71
2021/03/17 07:58:54;;;;;;;6.05;3.83;;;;;;;5.47;100.00;101996.16;5074882;28;20044;-70
2021/03/17 08:01:23;;;;;;;6.80;4.10;;;;;;;5.43;100.00;102005.09;5074772;28;20413;-70
2021/03/17 08:03:50;;;;;;;5.78;3.65;;;;;;;5.47;100.00;102016.56;5067842;28;20120;-70
2021/03/17 08:06:19;;;;;;;7.95;4.18;;;;;;;5.45;100.00;102013.94;5066298;28;20052;-70
2021/03/17 08:08:45;;;;;;;7.45;3.60;;;;;;;5.42;100.00;102014.03;5070531;28;20103;-70
2021/03/17 08:11:13;;;;;;;8.82;3.35;;;;;;;5.45;100.00;102019.25;5072485;28;20027;-70
2021/03/17 08:13:41;;;;;;;8.13;2.67;;;;;;;5.47;100.00;102006.78;5068512;28;20106;-72
2021/03/17 08:16:08;;;;;;;8.23;3.00;;;;;;;5.48;100.00;102011.22;5071382;28;20790;-71
2021/03/17 08:18:33;;;;;;;8.10;2.63;;;;;;;5.51;100.00;102000.47;5069988;28;20040;-70
2021/03/17 08:21:00;;;;;;;2.85;1.98;;;;;;;5.61;100.00;102014.47;5074407;28;20028;-70
2021/03/17 08:23:40;;;;;;;5.10;1.77;;;;;;;5.62;100.00;102017.06;5070522;28;20035;-70
2021/03/17 08:26:09;;;;;;;6.43;2.10;;;;;;;5.62;100.00;102011.75;5069781;28;20036;-70
2021/03/17 08:28:52;;;;;;;3.92;1.80;;;;;;;5.68;100.00;102016.94;5070238;28;20055;-70
2021/03/17 08:31:36;;;;;;;12.32;2.13;;;;;;;5.74;100.00;102015.06;5066117;28;20033;-70
2021/03/17 08:34:20;;;;;;;7.47;3.25;;;;;;;5.68;100.00;102014.28;5072379;28;20039;-70
2021/03/17 08:36:49;;;;;;;7.65;2.65;;;;;;;5.77;100.00;102014.97;5069988;28;20043;-70
2021/03/17 08:39:29;;;;;;;5.55;2.65;;;;;;;5.90;100.00;102016.47;5069572;28;20419;-70
2021/03/17 08:41:56;;;;;;;7.07;2.55;;;;;;;5.94;100.00;102018.13;5071471;28;20036;-70
2021/03/17 08:44:42;;;;;;;3.97;1.90;;;;;;;5.90;100.00;102022.69;5072550;28;20021;-70
2021/03/17 08:47:16;;;;;;;8.95;2.15;;;;;;;5.98;100.00;102022.50;5068043;28;20482;-70
2021/03/17 08:49:42;;;;;;;12.77;2.95;;;;;;;6.04;100.00;102019.69;5050929;28;20033;-70
2021/03/17 08:52:09;;;;;;;5.80;2.05;;;;;;;6.11;100.00;102020.41;5073804;28;20029;-70
2021/03/17 08:54:34;;;;;;;6.88;2.03;;;;;;;6.16;100.00;102027.38;5068829;28;20513;-70
2021/03/17 08:57:03;;;;;;;8.75;2.03;;;;;;;6.32;100.00;102035.84;5068140;28;20032;-70
2021/03/17 08:59:41;;;;;;;9.65;2.20;;;;;;;6.42;100.00;102032.88;5070165;28;20043;-70
2021/03/17 09:02:25;;;;;;;9.68;2.00;;;;;;;6.47;98.45;102038.13;5062710;28;20050;-70
2021/03/17 09:04:50;;;;;;;8.73;2.40;;;;;;;6.42;99.16;102038.22;5037421;28;20425;-71
2021/03/17 09:07:17;;;;;;;11.52;4.22;;;;;;;6.33;99.86;102043.81;5066424;28;20101;-71
2021/03/17 09:09:53;;;;;;;6.78;2.20;;;;;;;6.32;100.00;102046.50;5071732;28;20028;-70
2021/03/17 09:12:39;;;;;;;5.43;2.10;;;;;;;6.27;100.00;102049.31;5063572;28;20078;-70
2021/03/17 09:15:14;;;;;;;5.38;2.25;;;;;;;6.37;98.56;102050.81;5072626;28;20044;-70
2021/03/17 09:17:50;;;;;;;5.78;2.25;;;;;;;6.45;97.40;102051.50;5074508;28;20043;-70
2021/03/17 09:20:22;;;;;;;7.90;2.45;;;;;;;6.56;95.46;102045.00;5067291;28;20033;-70
2021/03/17 09:23:06;;;;;;;10.80;3.05;;;;;;;6.60;94.19;102047.56;5079594;28;20036;-70
2021/03/17 09:25:53;;;;;;;7.38;1.98;;;;;;;6.63;94.74;102030.56;5070766;28;20404;-70
2021/03/17 09:28:20;;;;;;;7.80;1.95;;;;;;;7.27;92.04;102033.19;5065496;28;20044;-70
2021/03/17 09:30:57;;;;;;;7.50;2.20;;;;;;;7.42;91.07;102029.16;5071570;28;20024;-70
2021/03/17 09:33:28;;;;;;;8.07;2.03;;;;;;;7.68;91.58;102039.91;5072839;28;20040;-70
2021/03/17 09:35:57;;;;;;;2.95;1.77;;;;;;;7.56;90.24;102042.97;5104936;27;20090;-70
2021/03/17 09:38:27;;;;;;;5.90;1.67;;;;;;;7.48;88.49;102039.66;5068399;28;20090;-70
2021/03/17 09:41:08;;;;;;;9.07;1.90;;;;;;;7.53;88.58;102037.72;5072917;28;20518;-71
2021/03/17 09:43:41;;;;;;;4.57;1.40;;;;;;;7.38;88.82;102043.53;5049905;28;20116;-70
2021/03/17 09:46:31;;;;;;;3.65;1.38;;;;;;;7.38;88.09;102042.66;5074179;28;20107;-70
2021/03/17 09:49:10;;;;;;;8.38;1.40;;;;;;;7.39;88.33;102039.06;5066462;28;20024;-71
2021/03/17 09:51:57;;;;;;;5.07;1.10;;;;;;;7.56;85.38;102042.97;5068089;28;20266;-70
2021/03/17 09:54:26;;;;;;;6.20;0.90;;;;;;;7.69;84.20;102047.03;5070558;28;20043;-70
2021/03/17 09:56:55;;;;;;;7.90;1.55;;;;;;;7.63;85.39;102051.69;5066782;28;20039;-70
2021/03/17 09:59:35;;;;;;;2.70;1.10;;;;;;;7.62;84.75;102049.94;5065314;28;20063;-70
2021/03/17 10:02:10;;;;;;;7.78;1.73;;;;;;;7.61;85.78;102045.50;5065170;28;20066;-71
2021/03/17 10:04:42;;;;;;;3.72;1.27;;;;;;;7.45;82.71;102044.22;5068037;28;20112;-70
2021/03/17 10:07:11;;;;;;;3.33;1.05;;;;;;;7.30;83.75;102046.44;5073975;28;20033;-70
2021/03/17 10:09:38;;;;;;;6.95;1.80;;;;;;;7.41;80.32;102053.25;5066262;28;20040;-70
2021/03/17 10:12:15;;;;;;;3.17;1.20;;;;;;;7.42;82.51;102050.53;5073708;28;20415;-70
2021/03/17 10:14:50;;;;;;;8.90;1.80;;;;;;;7.51;80.34;102054.72;5067235;28;20044;-70
2021/03/17 10:17:18;;;;;;;8.80;2.55;;;;;;;7.54;77.96;102049.28;5066490;28;20028;-70
2021/03/17 10:19:49;;;;;;;7.43;1.23;;;;;;;7.77;78.88;102054.81;5063503;28;20111;-70
2021/03/17 10:22:16;;;;;;;5.70;1.98;;;;;;;8.04;80.74;102040.53;5078068;28;20482;-70
2021/03/17 10:24:44;;;;;;;10.63;2.03;;;;;;;8.23;77.97;102039.94;5068368;28;20031;-71
2021/03/17 10:27:14;;;;;;;7.80;1.67;;;;;;;8.27;79.93;102037.09;5065389;28;20028;-70
2021/03/17 10:29:41;;;;;;;3.30;1.42;;;;;;;8.22;79.31;102030.16;5065789;28;20040;-71
2021/03/17 10:32:14;;;;;;;6.95;1.20;;;;;;;8.28;77.92;102030.81;5065800;28;20086;-70
2021/03/17 10:34:40;;;;;;;4.97;1.10;;;;;;;8.56;77.05;102035.25;5067489;28;20386;-71
2021/03/17 10:37:14;;;;;;;5.30;1.58;;;;;;;8.52;74.58;102040.72;5068145;28;20033;-70
2021/03/17 10:39:41;;;;;;;3.85;1.10;;;;;;;8.42;74.06;102038.41;5064034;28;20483;-70
2021/03/17 10:42:27;;;;;;;5.50;1.35;;;;;;;8.20;73.79;102034.69;5074908;28;20024;-70
2021/03/17 10:45:01;;;;;;;3.83;1.52;;;;;;;8.28;76.47;102032.63;5071349;28;20418;-70
2021/03/17 10:47:27;;;;;;;1.80;0.98;;;;;;;8.19;72.90;102033.81;5069813;28;20044;-71
2021/03/17 10:49:53;;;;;;;7.57;1.13;;;;;;;8.21;77.39;102026.59;5079205;28;20032;-70
2021/03/17 10:52:19;;;;;;;5.45;1.10;;;;;;;8.41;70.77;102031.31;5076647;28;20028;-71
2021/03/17 10:54:45;;;;;;;5.15;1.20;;;;;;;8.29;71.04;102040.59;5067210;28;20395;-71
2021/03/17 10:57:23;;;;;;;5.63;0.95;;;;;;;8.29;70.78;102029.00;5078478;28;20144;-70
2021/03/17 10:59:50;;;;;;;6.07;1.35;;;;;;;8.12;72.48;102033.16;5067925;28;20028;-71
2021/03/17 11:02:23;;;;;;;10.85;1.85;;;;;;;8.15;72.35;102039.31;5073476;28;20032;-70
2021/03/17 11:05:15;;;;;;;9.95;1.77;;;;;;;8.22;71.17;102032.81;5064322;28;20518;-70
2021/03/17 11:07:59;;;;;;;10.85;2.45;;;;;;;8.31;73.60;102033.44;5067932;28;20028;-70
2021/03/17 11:10:42;;;;;;;8.00;1.33;;;;;;;8.43;73.67;102024.13;5079593;28;20044;-71
2021/03/17 11:13:08;;;;;;;11.68;2.55;;;;;;;8.56;72.35;102030.78;5071724;28;20056;-71
2021/03/17 11:15:34;;;;;;;4.72;1.10;;;;;;;8.62;73.90;102017.19;5071346;28;20542;-71
2021/03/17 11:17:59;;;;;;;5.20;1.17;;;;;;;8.58;70.09;102031.59;5070814;28;20039;-71
2021/03/17 11:20:26;;;;;;;5.40;1.20;;;;;;;8.44;68.45;102039.25;5067766;28;20036;-72
2021/03/17 11:22:53;;;;;;;4.32;0.90;;;;;;;8.27;70.89;102036.25;5071479;28;20458;-71
2021/03/17 11:25:25;;;;;;;8.18;1.95;;;;;;;8.31;72.22;102032.56;5076892;28;20034;-71
2021/03/17 11:27:52;;;;;;;4.97;0.90;;;;;;;8.29;69.16;102034.38;5074279;28;20453;-72
2021/03/17 11:30:19;;;;;;;5.05;1.38;;;;;;;8.25;71.00;102038.09;5074599;28;20265;-71
2021/03/17 11:32:44;;;;;;;5.05;1.13;;;;;;;8.23;71.64;102029.22;5071747;28;20038;-70
2021/03/17 11:35:11;;;;;;;13.50;2.53;;;;;;;8.16;74.59;102027.69;5070382;28;20636;-70
2021/03/17 11:37:37;;;;;;;6.13;1.42;;;;;;;8.15;74.92;102020.59;5078864;28;20027;-70
2021/03/17 11:40:04;;;;;;;3.47;0.95;;;;;;;7.97;72.80;102028.28;5073687;28;20029;-72